usa flag      new mexico flag

Language: 

LomaPinon History Data from Weather Underground


LomaPinon Weather Station Historical Data
 
Daily Summary for February 19, 2018 Units:  English    Metric   Both
« Previous Day
Next Day »
Daily Weekly Monthly Yearly Custom
  Current: High: Low: Average:
Temperature: 49.0 °F TemperatureF °F 40.2 °F 42.2 °F
Dew Point: 36.5 °F DewpointF °F 31.6 °F 33.3 °F
Humidity: 62 % Humidity % 62 % 70 %
Wind Speed: 4.0 mph WindSpeedMPH mph 0.0 mph 0.4 mph
Wind Gust: 8.0 mph WindSpeedGustMPH mph - -
Wind:SW - - South
Pressure: 29.56 in PressureIn in 29.56 in -
Precipitation: 0.00 in      
Historical Graphs
 
 
Tabular Data for February 19, 2018
Time Temperature Dew Point Pressure Wind Wind Speed Wind Gust Humidity Rainfall Rate (Hourly) solar
TemperatureF °F DewpointF °F PressureIn in Calm     Humidity % HourlyPrecipIn in SolarRadiationWatts/m^2 W/m2
00:01 44.3 °F 32.9 °F 29.65 in Calm     64 % 0.00 in 0 W/m2
00:06 44.2 °F 32.8 °F 29.65 in Calm     64 % 0.00 in 0 W/m2
00:11 44.1 °F 32.7 °F 29.65 in Calm     64 % 0.00 in 0 W/m2
00:16 43.8 °F 32.0 °F 29.65 in Calm     63 % 0.00 in 0 W/m2
00:21 43.4 °F 32.0 °F 29.65 in Calm     64 % 0.00 in 0 W/m2
00:26 42.9 °F 31.9 °F 29.65 in Calm     65 % 0.00 in 0 W/m2
00:31 42.7 °F 31.7 °F 29.65 in Calm     65 % 0.00 in 0 W/m2
00:36 42.5 °F 31.9 °F 29.65 in Calm     66 % 0.00 in 0 W/m2
00:41 42.3 °F 32.1 °F 29.65 in Calm     67 % 0.00 in 0 W/m2
00:46 42.2 °F 32.4 °F 29.65 in Calm     68 % 0.00 in 0 W/m2
00:51 42.2 °F 32.4 °F 29.65 in Calm     68 % 0.00 in 0 W/m2
00:57 42.1 °F 32.3 °F 29.65 in Calm     68 % 0.00 in 0 W/m2
01:02 42.0 °F 32.2 °F 29.65 in Calm     68 % 0.00 in 0 W/m2
01:07 41.9 °F 32.5 °F 29.65 in Calm     69 % 0.00 in 0 W/m2
01:12 41.9 °F 32.5 °F 29.65 in Calm     69 % 0.00 in 0 W/m2
01:17 41.9 °F 32.5 °F 29.65 in Calm     69 % 0.00 in 0 W/m2
01:22 41.8 °F 32.7 °F 29.65 in Calm     70 % 0.00 in 0 W/m2
01:27 41.8 °F 32.4 °F 29.64 in Calm     69 % 0.00 in 0 W/m2
01:32 41.9 °F 32.8 °F 29.64 in Calm     70 % 0.00 in 0 W/m2
01:37 41.9 °F 32.8 °F 29.64 in Calm     70 % 0.00 in 0 W/m2
01:42 41.9 °F 33.2 °F 29.65 in Calm     71 % 0.00 in 0 W/m2
01:47 41.9 °F 33.2 °F 29.65 in Calm     71 % 0.00 in 0 W/m2
01:52 41.8 °F 33.1 °F 29.65 in Calm     71 % 0.00 in 0 W/m2
01:57 41.8 °F 33.1 °F 29.65 in Calm     71 % 0.00 in 0 W/m2
02:02 41.9 °F 33.9 °F 29.65 in Calm     73 % 0.00 in 0 W/m2
02:07 42.2 °F 34.5 °F 29.65 in SW 1.0 mph 1.0 mph 74 % 0.00 in 0 W/m2
02:12 42.5 °F 34.8 °F 29.65 in Calm   2.0 mph 74 % 0.00 in 0 W/m2
02:17 42.9 °F 34.8 °F 29.64 in Calm   2.0 mph 73 % 0.00 in 0 W/m2
02:22 43.2 °F 35.1 °F 29.64 in Calm   1.0 mph 73 % 0.00 in 0 W/m2
02:27 43.5 °F 35.4 °F 29.63 in Calm   2.0 mph 73 % 0.00 in 0 W/m2
02:32 43.8 °F 35.7 °F 29.63 in Calm   3.0 mph 73 % 0.00 in 0 W/m2
02:37 44.0 °F 35.9 °F 29.63 in Calm   3.0 mph 73 % 0.00 in 0 W/m2
02:42 44.2 °F 35.7 °F 29.63 in Calm   3.0 mph 72 % 0.00 in 0 W/m2
02:47 44.3 °F 35.8 °F 29.63 in Calm   2.0 mph 72 % 0.00 in 0 W/m2
02:52 44.4 °F 35.9 °F 29.62 in Calm   2.0 mph 72 % 0.00 in 0 W/m2
02:57 44.5 °F 35.7 °F 29.62 in Calm   4.0 mph 71 % 0.00 in 0 W/m2
03:02 44.6 °F 35.8 °F 29.62 in Calm   4.0 mph 71 % 0.00 in 0 W/m2
03:07 44.6 °F 35.8 °F 29.61 in Calm   4.0 mph 71 % 0.00 in 0 W/m2
03:12 44.7 °F 35.9 °F 29.61 in Calm   4.0 mph 71 % 0.00 in 0 W/m2
03:17 44.7 °F 35.9 °F 29.61 in Calm   3.0 mph 71 % 0.00 in 0 W/m2
03:22 44.5 °F 35.7 °F 29.61 in SSW 1.0 mph 6.0 mph 71 % 0.00 in 0 W/m2
03:27 44.6 °F 36.1 °F 29.61 in Calm   6.0 mph 72 % 0.00 in 0 W/m2
03:32 44.5 °F 36.0 °F 29.60 in Calm   5.0 mph 72 % 0.00 in 0 W/m2
03:37 44.4 °F 35.9 °F 29.60 in Calm   1.0 mph 72 % 0.00 in 0 W/m2
03:42 44.3 °F 35.8 °F 29.60 in Calm   2.0 mph 72 % 0.00 in 0 W/m2
03:47 44.2 °F 35.7 °F 29.60 in Calm   2.0 mph 72 % 0.00 in 0 W/m2
03:52 44.0 °F 35.6 °F 29.60 in Calm   2.0 mph 72 % 0.00 in 0 W/m2
03:57 43.8 °F 35.7 °F 29.60 in Calm   3.0 mph 73 % 0.00 in 0 W/m2
04:02 43.8 °F 35.7 °F 29.60 in Calm   3.0 mph 73 % 0.00 in 0 W/m2
04:12 43.8 °F 35.7 °F 29.59 in SSW 1.0 mph 2.0 mph 73 % 0.00 in 0 W/m2
04:17 43.9 °F 35.5 °F 29.59 in Calm   2.0 mph 72 % 0.00 in 0 W/m2
04:22 43.9 °F 35.5 °F 29.59 in Calm   2.0 mph 72 % 0.00 in 0 W/m2
04:27 43.8 °F 35.4 °F 29.60 in Calm     72 % 0.00 in 0 W/m2
04:32 43.7 °F 35.3 °F 29.59 in Calm     72 % 0.00 in 0 W/m2
04:37 43.5 °F 35.1 °F 29.59 in Calm     72 % 0.00 in 0 W/m2
04:42 43.3 °F 34.9 °F 29.59 in Calm   1.0 mph 72 % 0.00 in 0 W/m2
04:48 43.0 °F 34.6 °F 29.59 in Calm   1.0 mph 72 % 0.00 in 0 W/m2
04:53 42.8 °F 34.4 °F 29.59 in South 2.0 mph 2.0 mph 72 % 0.00 in 0 W/m2
04:58 42.6 °F 34.2 °F 29.59 in Calm   2.0 mph 72 % 0.00 in 0 W/m2
05:03 42.4 °F 34.0 °F 29.59 in Calm   2.0 mph 72 % 0.00 in 0 W/m2
05:08 42.2 °F 33.8 °F 29.59 in Calm   2.0 mph 72 % 0.00 in 0 W/m2
05:13 42.0 °F 33.6 °F 29.59 in Calm   2.0 mph 72 % 0.00 in 0 W/m2
05:18 41.8 °F 33.4 °F 29.59 in Calm   3.0 mph 72 % 0.00 in 0 W/m2
05:23 41.6 °F 33.2 °F 29.59 in SSW 1.0 mph 3.0 mph 72 % 0.00 in 0 W/m2
05:28 41.5 °F 33.1 °F 29.59 in Calm   3.0 mph 72 % 0.00 in 0 W/m2
05:33 41.4 °F 33.0 °F 29.59 in Calm   3.0 mph 72 % 0.00 in 0 W/m2
05:38 41.3 °F 33.0 °F 29.59 in Calm   1.0 mph 72 % 0.00 in 0 W/m2
05:43 41.0 °F 32.7 °F 29.59 in Calm   2.0 mph 72 % 0.00 in 0 W/m2
05:48 40.7 °F 32.7 °F 29.59 in Calm   4.0 mph 73 % 0.00 in 0 W/m2
05:53 40.5 °F 32.5 °F 29.59 in SSW 1.0 mph 4.0 mph 73 % 0.00 in 0 W/m2
05:58 40.3 °F 32.7 °F 29.59 in SSW 3.0 mph 6.0 mph 74 % 0.00 in 0 W/m2
06:03 40.4 °F 32.8 °F 29.59 in Calm   8.0 mph 74 % 0.00 in 0 W/m2
06:08 40.5 °F 32.5 °F 29.59 in Calm   8.0 mph 73 % 0.00 in 0 W/m2
06:13 40.4 °F 32.4 °F 29.59 in Calm   6.0 mph 73 % 0.00 in 0 W/m2
06:18 40.4 °F 32.4 °F 29.59 in South 2.0 mph 4.0 mph 73 % 0.00 in 0 W/m2
06:23 40.3 °F 32.7 °F 29.58 in South 1.0 mph 4.0 mph 74 % 0.00 in 0 W/m2
06:28 40.2 °F 32.2 °F 29.58 in South 3.0 mph 3.0 mph 73 % 0.00 in 0 W/m2
06:33 40.3 °F 32.3 °F 29.58 in South 2.0 mph 3.0 mph 73 % 0.00 in 0 W/m2
06:38 40.4 °F 32.1 °F 29.57 in Calm   3.0 mph 72 % 0.00 in 0 W/m2
06:43 40.4 °F 31.7 °F 29.58 in Calm   3.0 mph 71 % 0.00 in 0 W/m2
06:48 40.4 °F 31.7 °F 29.58 in Calm   3.0 mph 71 % 0.00 in 0 W/m2
06:53 40.3 °F 31.6 °F 29.58 in Calm   2.0 mph 71 % 0.00 in 5 W/m2
06:58 40.3 °F 31.6 °F 29.58 in Calm   3.0 mph 71 % 0.00 in 7 W/m2
07:03 40.3 °F 32.0 °F 29.58 in Calm   3.0 mph 72 % 0.00 in 11 W/m2
07:08 40.3 °F 32.0 °F 29.58 in Calm   3.0 mph 72 % 0.00 in 14 W/m2
07:13 40.3 °F 32.0 °F 29.58 in Calm   1.0 mph 72 % 0.00 in 16 W/m2
07:18 40.3 °F 32.3 °F 29.58 in SSE 2.0 mph 2.0 mph 73 % 0.00 in 21 W/m2
07:23 40.4 °F 32.4 °F 29.58 in Calm   4.0 mph 73 % 0.00 in 23 W/m2
07:28 40.4 °F 32.4 °F 29.58 in Calm   4.0 mph 73 % 0.00 in 26 W/m2
07:33 40.4 °F 32.8 °F 29.58 in Calm   3.0 mph 74 % 0.00 in 26 W/m2
07:38 40.4 °F 32.8 °F 29.58 in Calm   2.0 mph 74 % 0.00 in 42 W/m2
07:43 40.4 °F 33.1 °F 29.58 in Calm   2.0 mph 75 % 0.00 in 42 W/m2
07:49 40.5 °F 32.9 °F 29.58 in Calm   2.0 mph 74 % 0.00 in 42 W/m2
07:54 40.6 °F 33.3 °F 29.57 in Calm   2.0 mph 75 % 0.00 in 39 W/m2
07:59 40.7 °F 33.4 °F 29.57 in Calm   2.0 mph 75 % 0.00 in 44 W/m2
08:04 41.0 °F 33.3 °F 29.57 in SSW 2.0 mph 3.0 mph 74 % 0.00 in 63 W/m2
08:09 41.2 °F 33.2 °F 29.57 in Calm   3.0 mph 73 % 0.00 in 111 W/m2
08:14 41.6 °F 33.2 °F 29.57 in SSW 1.0 mph 3.0 mph 72 % 0.00 in 90 W/m2
08:19 42.3 °F 33.2 °F 29.57 in South 1.0 mph 5.0 mph 70 % 0.00 in 109 W/m2
08:24 43.1 °F 32.9 °F 29.57 in Calm   5.0 mph 67 % 0.00 in 135 W/m2
08:29 43.9 °F 32.9 °F 29.57 in SSW 1.0 mph 4.0 mph 65 % 0.00 in 137 W/m2
08:34 44.6 °F 32.8 °F 29.57 in South 3.0 mph 5.0 mph 63 % 0.00 in 171 W/m2
08:39 45.3 °F 33.4 °F 29.57 in Calm   5.0 mph 63 % 0.00 in 206 W/m2
08:44 45.9 °F 34.0 °F 29.57 in Calm   4.0 mph 63 % 0.00 in 123 W/m2
08:49 46.4 °F 34.5 °F 29.57 in SSE 3.0 mph 5.0 mph 63 % 0.00 in 425 W/m2
08:54 47.2 °F 34.8 °F 29.57 in South 3.0 mph 7.0 mph 62 % 0.00 in 580 W/m2
08:59 48.2 °F 35.8 °F 29.56 in South 2.0 mph 8.0 mph 62 % 0.00 in 570 W/m2
09:04 49.0 °F 36.5 °F 29.56 in SW 4.0 mph 8.0 mph 62 % 0.00 in 591 W/m2
Rio Rancho, New Mexico Weather
Compliments of Weather Underground - 2 mb
top